Ital Libera — ICDK — position and weather

sailwx.info

Track history (hours):
 
Tides and Currents Weather Stations Pressure Air Temp Water Temp Dewpoint Dewpoint Depression Visibility Wind Speed Wind Dir Waves Ship Positions

Ital Libera

Last reported at 2017-Nov-24 12:15 UTC. Time now 2017-Nov-25 11:30 UTC.
Position S 37°17' E 150°08'.

Length 294 m; draft 11.6 m.

Type: Ship. MMSI: 247188100.

Date/timePositionNaut miles runAvg speedWind from/ knotsBaromVisibWave heightAir tempDewpointWater temp
2017-Nov-24 12:15S 37°17' E 150°08'1116.6
2017-Nov-24 11:37S 37°28' E 150°05'215.8
2017-Nov-24 11:30S 37°29' E 150°05'6416.9
2017-Nov-24 07:43S 38°15' E 149°07'416.9
2017-Nov-24 07:30S 38°17' E 149°04'916.9
2017-Nov-24 06:59S 38°23' E 148°56'817.1
2017-Nov-24 06:31S 38°28' E 148°48'916.9
2017-Nov-24 05:59S 38°33' E 148°39'816.9
2017-Nov-24 05:30S 38°38' E 148°30'917.2
2017-Nov-24 05:00S 38°43' E 148°21'16612.1
2017-Nov-23 15:15S 38°06' E 144°55'617.9
2017-Nov-23 14:54S 37°60' E 144°55'615.8
2017-Nov-23 14:30S 37°54' E 144°56'4 8.5
2017-Nov-23 14:00S 37°49' E 144°54'1 1.7
2017-Nov-23 13:30S 37°49' E 144°55'0 0.0
2017-Nov-23 12:57S 37°49' E 144°55'  
2017-Nov-20 00:30S 33°54' E 151°41'1015.9
2017-Nov-19 23:51S 33°46' E 151°48'4617.9
2017-Nov-19 21:18S 33°10' E 152°22'518.2
2017-Nov-19 21:00S 33°06' E 152°26'918.5
2017-Nov-19 20:31S 32°59' E 152°33'918.7
2017-Nov-19 20:00S 32°52' E 152°40'918.6
2017-Nov-19 19:30S 32°44' E 152°47'918.4
2017-Nov-19 19:01S 32°36' E 152°52'24520.3
2017-Nov-19 06:55S 28°37' E 153°52'1021.3
2017-Nov-19 06:27S 28°27' E 153°53'921.3
2017-Nov-19 06:00S 28°17' E 153°53'1121.1
2017-Nov-19 05:30S 28°07' E 153°53'1020.8
2017-Nov-19 05:01S 27°56' E 153°53'1120.9
2017-Nov-19 04:30S 27°46' E 153°52'1020.6
2017-Nov-19 04:00S 27°36' E 153°53'  
Track history (hours):
 
Tides and Currents Weather Stations Pressure Air Temp Water Temp Dewpoint Dewpoint Depression Visibility Wind Speed Wind Dir Waves Ship Positions

Ital Libera

Last reported at 2017-Nov-24 12:15 UTC. Time now 2017-Nov-25 11:30 UTC.
Position S 37°17' E 150°08'.

Length 294 m; draft 11.6 m.

Type: Ship. MMSI: 247188100.

Date/timePositionNaut miles runAvg speedWind from/ knotsBaromVisibWave heightAir tempDewpointWater temp
2017-Nov-24 12:15S 37°17' E 150°08'1116.6
2017-Nov-24 11:37S 37°28' E 150°05'215.8
2017-Nov-24 11:30S 37°29' E 150°05'6416.9
2017-Nov-24 07:43S 38°15' E 149°07'416.9
2017-Nov-24 07:30S 38°17' E 149°04'916.9
2017-Nov-24 06:59S 38°23' E 148°56'817.1
2017-Nov-24 06:31S 38°28' E 148°48'916.9
2017-Nov-24 05:59S 38°33' E 148°39'816.9
2017-Nov-24 05:30S 38°38' E 148°30'917.2
2017-Nov-24 05:00S 38°43' E 148°21'16612.1
2017-Nov-23 15:15S 38°06' E 144°55'617.9
2017-Nov-23 14:54S 37°60' E 144°55'615.8
2017-Nov-23 14:30S 37°54' E 144°56'4 8.5
2017-Nov-23 14:00S 37°49' E 144°54'1 1.7
2017-Nov-23 13:30S 37°49' E 144°55'0 0.0
2017-Nov-23 12:57S 37°49' E 144°55'  
2017-Nov-20 00:30S 33°54' E 151°41'1015.9
2017-Nov-19 23:51S 33°46' E 151°48'4617.9
2017-Nov-19 21:18S 33°10' E 152°22'518.2
2017-Nov-19 21:00S 33°06' E 152°26'918.5
2017-Nov-19 20:31S 32°59' E 152°33'918.7
2017-Nov-19 20:00S 32°52' E 152°40'918.6
2017-Nov-19 19:30S 32°44' E 152°47'918.4
2017-Nov-19 19:01S 32°36' E 152°52'24520.3
2017-Nov-19 06:55S 28°37' E 153°52'1021.3
2017-Nov-19 06:27S 28°27' E 153°53'921.3
2017-Nov-19 06:00S 28°17' E 153°53'1121.1
2017-Nov-19 05:30S 28°07' E 153°53'1020.8
2017-Nov-19 05:01S 27°56' E 153°53'1120.9
2017-Nov-19 04:30S 27°46' E 153°52'1020.6
2017-Nov-19 04:00S 27°36' E 153°53'  

Dump ship's entire track history